sensor_id;sensor_type;location;lat;lon;timestamp;temperature;humidity
19449;DHT22;9863;49.404;8.246;2022-12-18T00:01:44;-6.90;99.90
19449;DHT22;9863;49.404;8.246;2022-12-18T00:04:23;-6.80;99.90
19449;DHT22;9863;49.404;8.246;2022-12-18T00:06:52;-6.90;99.90
19449;DHT22;9863;49.404;8.246;2022-12-18T00:09:20;-6.80;99.90
19449;DHT22;9863;49.404;8.246;2022-12-18T00:11:50;-6.80;99.90
19449;DHT22;9863;49.404;8.246;2022-12-18T00:14:17;-6.60;99.90
19449;DHT22;9863;49.404;8.246;2022-12-18T00:16:45;-6.70;99.90
19449;DHT22;9863;49.404;8.246;2022-12-18T00:19:14;-6.70;99.90
19449;DHT22;9863;49.404;8.246;2022-12-18T00:21:42;-6.60;99.90
19449;DHT22;9863;49.404;8.246;2022-12-18T00:24:10;-6.60;99.90
19449;DHT22;9863;49.404;8.246;2022-12-18T00:26:38;-6.60;99.90
19449;DHT22;9863;49.404;8.246;2022-12-18T00:29:13;-6.60;99.90
19449;DHT22;9863;49.404;8.246;2022-12-18T00:31:43;-6.70;99.90
19449;DHT22;9863;49.404;8.246;2022-12-18T00:34:12;-6.70;99.90
19449;DHT22;9863;49.404;8.246;2022-12-18T00:36:40;-6.70;99.90
19449;DHT22;9863;49.404;8.246;2022-12-18T00:39:09;-6.60;99.90
19449;DHT22;9863;49.404;8.246;2022-12-18T00:41:41;-6.60;99.90
19449;DHT22;9863;49.404;8.246;2022-12-18T00:44:28;-6.60;99.90
19449;DHT22;9863;49.404;8.246;2022-12-18T00:46:55;-6.60;99.90
19449;DHT22;9863;49.404;8.246;2022-12-18T00:49:22;-6.60;99.90
19449;DHT22;9863;49.404;8.246;2022-12-18T00:51:49;-6.70;99.90
19449;DHT22;9863;49.404;8.246;2022-12-18T00:54:16;-6.60;99.90
19449;DHT22;9863;49.404;8.246;2022-12-18T00:56:44;-6.60;99.90
19449;DHT22;9863;49.404;8.246;2022-12-18T00:59:16;-6.70;99.90
19449;DHT22;9863;49.404;8.246;2022-12-18T01:01:44;-6.70;99.90
19449;DHT22;9863;49.404;8.246;2022-12-18T01:04:11;-6.60;99.90
19449;DHT22;9863;49.404;8.246;2022-12-18T01:06:38;-6.60;99.90
19449;DHT22;9863;49.404;8.246;2022-12-18T01:09:06;-6.60;99.90
19449;DHT22;9863;49.404;8.246;2022-12-18T01:11:33;-6.60;99.90
19449;DHT22;9863;49.404;8.246;2022-12-18T01:14:00;-6.60;99.90
19449;DHT22;9863;49.404;8.246;2022-12-18T01:16:27;-6.60;99.90
19449;DHT22;9863;49.404;8.246;2022-12-18T01:18:54;-6.50;99.90
19449;DHT22;9863;49.404;8.246;2022-12-18T01:21:23;-6.50;99.90
19449;DHT22;9863;49.404;8.246;2022-12-18T01:23:55;-6.50;99.90
19449;DHT22;9863;49.404;8.246;2022-12-18T01:26:24;-6.50;99.90
19449;DHT22;9863;49.404;8.246;2022-12-18T01:28:54;-6.50;99.90
19449;DHT22;9863;49.404;8.246;2022-12-18T01:31:27;-6.50;99.90
19449;DHT22;9863;49.404;8.246;2022-12-18T01:33:57;-6.60;99.90
19449;DHT22;9863;49.404;8.246;2022-12-18T01:36:30;-6.60;99.90
19449;DHT22;9863;49.404;8.246;2022-12-18T01:41:45;-6.60;99.90
19449;DHT22;9863;49.404;8.246;2022-12-18T01:47:44;-6.60;99.90
19449;DHT22;9863;49.404;8.246;2022-12-18T01:50:24;-6.60;99.90
19449;DHT22;9863;49.404;8.246;2022-12-18T01:52:58;-6.50;99.90
19449;DHT22;9863;49.404;8.246;2022-12-18T01:55:31;-6.60;99.90
19449;DHT22;9863;49.404;8.246;2022-12-18T01:58:03;-6.60;99.90
19449;DHT22;9863;49.404;8.246;2022-12-18T02:00:31;-6.50;99.90
19449;DHT22;9863;49.404;8.246;2022-12-18T02:02:58;-6.50;99.90
19449;DHT22;9863;49.404;8.246;2022-12-18T02:05:45;-6.50;99.90
19449;DHT22;9863;49.404;8.246;2022-12-18T02:08:37;-6.70;99.90
19449;DHT22;9863;49.404;8.246;2022-12-18T02:22:41;-6.70;99.90
19449;DHT22;9863;49.404;8.246;2022-12-18T02:28:34;-6.70;99.90
19449;DHT22;9863;49.404;8.246;2022-12-18T02:31:05;-6.70;99.90
19449;DHT22;9863;49.404;8.246;2022-12-18T02:33:36;-6.60;99.90
19449;DHT22;9863;49.404;8.246;2022-12-18T02:36:05;-6.60;99.90
19449;DHT22;9863;49.404;8.246;2022-12-18T02:38:35;-6.60;99.90
19449;DHT22;9863;49.404;8.246;2022-12-18T02:41:03;-6.60;99.90
19449;DHT22;9863;49.404;8.246;2022-12-18T02:43:31;-6.60;99.90
19449;DHT22;9863;49.404;8.246;2022-12-18T02:45:59;-6.60;99.90
19449;DHT22;9863;49.404;8.246;2022-12-18T02:48:34;-6.50;99.90
19449;DHT22;9863;49.404;8.246;2022-12-18T02:51:23;-6.60;99.90
19449;DHT22;9863;49.404;8.246;2022-12-18T02:54:09;-6.70;99.90
19449;DHT22;9863;49.404;8.246;2022-12-18T02:56:51;-6.70;99.90
19449;DHT22;9863;49.404;8.246;2022-12-18T02:59:30;-6.70;99.90
19449;DHT22;9863;49.404;8.246;2022-12-18T03:02:23;-6.70;99.90
19449;DHT22;9863;49.404;8.246;2022-12-18T03:10:26;-6.60;99.90
19449;DHT22;9863;49.404;8.246;2022-12-18T03:13:03;-6.60;99.90
19449;DHT22;9863;49.404;8.246;2022-12-18T03:15:46;-6.60;99.90
19449;DHT22;9863;49.404;8.246;2022-12-18T03:18:29;-6.50;99.90
19449;DHT22;9863;49.404;8.246;2022-12-18T03:21:03;-6.60;99.90
19449;DHT22;9863;49.404;8.246;2022-12-18T03:23:39;-6.60;99.90
19449;DHT22;9863;49.404;8.246;2022-12-18T03:26:10;-6.60;99.90
19449;DHT22;9863;49.404;8.246;2022-12-18T03:28:49;-6.50;99.90
19449;DHT22;9863;49.404;8.246;2022-12-18T03:31:19;-6.50;99.90
19449;DHT22;9863;49.404;8.246;2022-12-18T03:34:01;-6.50;99.90
19449;DHT22;9863;49.404;8.246;2022-12-18T03:36:30;-6.50;99.90
19449;DHT22;9863;49.404;8.246;2022-12-18T03:38:58;-6.60;99.90
19449;DHT22;9863;49.404;8.246;2022-12-18T03:44:39;-6.60;99.90
19449;DHT22;9863;49.404;8.246;2022-12-18T03:47:18;-6.70;99.90
19449;DHT22;9863;49.404;8.246;2022-12-18T03:52:53;-6.70;99.90
19449;DHT22;9863;49.404;8.246;2022-12-18T03:55:44;-6.60;99.90
19449;DHT22;9863;49.404;8.246;2022-12-18T03:58:16;-6.60;99.90
19449;DHT22;9863;49.404;8.246;2022-12-18T04:00:45;-6.60;99.90
19449;DHT22;9863;49.404;8.246;2022-12-18T04:03:14;-6.60;99.90
19449;DHT22;9863;49.404;8.246;2022-12-18T04:05:43;-6.60;99.90
19449;DHT22;9863;49.404;8.246;2022-12-18T04:08:12;-6.60;99.90
19449;DHT22;9863;49.404;8.246;2022-12-18T04:10:40;-6.60;99.90
19449;DHT22;9863;49.404;8.246;2022-12-18T04:13:07;-6.60;99.90
19449;DHT22;9863;49.404;8.246;2022-12-18T04:15:36;-6.60;99.90
19449;DHT22;9863;49.404;8.246;2022-12-18T04:18:03;-6.60;99.90
19449;DHT22;9863;49.404;8.246;2022-12-18T04:20:30;-6.70;99.90
19449;DHT22;9863;49.404;8.246;2022-12-18T04:22:57;-6.60;99.90
19449;DHT22;9863;49.404;8.246;2022-12-18T04:25:24;-6.60;99.90
19449;DHT22;9863;49.404;8.246;2022-12-18T04:27:51;-6.50;99.90
19449;DHT22;9863;49.404;8.246;2022-12-18T04:30:18;-6.50;99.90
19449;DHT22;9863;49.404;8.246;2022-12-18T04:32:45;-6.50;99.90
19449;DHT22;9863;49.404;8.246;2022-12-18T04:35:17;-6.50;99.90
19449;DHT22;9863;49.404;8.246;2022-12-18T04:37:44;-6.60;99.90
19449;DHT22;9863;49.404;8.246;2022-12-18T04:40:13;-6.60;99.90
19449;DHT22;9863;49.404;8.246;2022-12-18T04:42:40;-6.60;99.90
19449;DHT22;9863;49.404;8.246;2022-12-18T04:45:08;-6.60;99.90
19449;DHT22;9863;49.404;8.246;2022-12-18T04:47:35;-6.50;99.90
19449;DHT22;9863;49.404;8.246;2022-12-18T04:50:03;-6.50;99.90
19449;DHT22;9863;49.404;8.246;2022-12-18T04:52:30;-6.50;99.90
19449;DHT22;9863;49.404;8.246;2022-12-18T04:54:57;-6.60;99.90
19449;DHT22;9863;49.404;8.246;2022-12-18T04:57:24;-6.60;99.90
19449;DHT22;9863;49.404;8.246;2022-12-18T04:59:51;-6.60;99.90
19449;DHT22;9863;49.404;8.246;2022-12-18T05:02:18;-6.60;99.90
19449;DHT22;9863;49.404;8.246;2022-12-18T05:04:45;-6.60;99.90
19449;DHT22;9863;49.404;8.246;2022-12-18T05:07:12;-6.50;99.90
19449;DHT22;9863;49.404;8.246;2022-12-18T05:09:39;-6.50;99.90
19449;DHT22;9863;49.404;8.246;2022-12-18T05:12:07;-6.40;99.90
19449;DHT22;9863;49.404;8.246;2022-12-18T05:14:34;-6.50;99.90
19449;DHT22;9863;49.404;8.246;2022-12-18T05:17:01;-6.50;99.90
19449;DHT22;9863;49.404;8.246;2022-12-18T05:19:28;-6.60;99.90
19449;DHT22;9863;49.404;8.246;2022-12-18T05:21:55;-6.60;99.90
19449;DHT22;9863;49.404;8.246;2022-12-18T05:24:22;-6.60;99.90
19449;DHT22;9863;49.404;8.246;2022-12-18T05:26:49;-6.60;99.90
19449;DHT22;9863;49.404;8.246;2022-12-18T05:29:16;-6.60;99.90
19449;DHT22;9863;49.404;8.246;2022-12-18T05:31:43;-6.60;99.90
19449;DHT22;9863;49.404;8.246;2022-12-18T05:34:11;-6.60;99.90
19449;DHT22;9863;49.404;8.246;2022-12-18T05:36:38;-6.50;99.90
19449;DHT22;9863;49.404;8.246;2022-12-18T05:39:05;-6.70;99.90
19449;DHT22;9863;49.404;8.246;2022-12-18T05:41:33;-6.70;99.90
19449;DHT22;9863;49.404;8.246;2022-12-18T05:44:00;-6.60;99.90
19449;DHT22;9863;49.404;8.246;2022-12-18T05:46:27;-6.60;99.90
19449;DHT22;9863;49.404;8.246;2022-12-18T05:48:55;-6.70;99.90
19449;DHT22;9863;49.404;8.246;2022-12-18T05:51:22;-6.60;99.90
19449;DHT22;9863;49.404;8.246;2022-12-18T05:53:49;-6.70;99.90
19449;DHT22;9863;49.404;8.246;2022-12-18T05:56:20;-6.70;99.90
19449;DHT22;9863;49.404;8.246;2022-12-18T05:58:51;-6.70;99.90
19449;DHT22;9863;49.404;8.246;2022-12-18T06:01:23;-6.80;99.90
19449;DHT22;9863;49.404;8.246;2022-12-18T06:03:53;-6.80;99.90
19449;DHT22;9863;49.404;8.246;2022-12-18T06:06:23;-6.70;99.90
19449;DHT22;9863;49.404;8.246;2022-12-18T06:08:52;-6.80;99.90
19449;DHT22;9863;49.404;8.246;2022-12-18T06:11:22;-6.80;99.90
19449;DHT22;9863;49.404;8.246;2022-12-18T06:13:55;-6.80;99.90
19449;DHT22;9863;49.404;8.246;2022-12-18T06:16:25;-6.90;99.90
19449;DHT22;9863;49.404;8.246;2022-12-18T06:18:59;-7.00;99.90
19449;DHT22;9863;49.404;8.246;2022-12-18T06:21:27;-7.00;99.90
19449;DHT22;9863;49.404;8.246;2022-12-18T06:23:55;-7.00;99.90
19449;DHT22;9863;49.404;8.246;2022-12-18T06:26:23;-7.10;99.90
19449;DHT22;9863;49.404;8.246;2022-12-18T06:28:54;-7.10;99.90
19449;DHT22;9863;49.404;8.246;2022-12-18T06:31:21;-7.00;99.90
19449;DHT22;9863;49.404;8.246;2022-12-18T06:33:48;-7.10;99.90
19449;DHT22;9863;49.404;8.246;2022-12-18T06:36:15;-7.10;99.90
19449;DHT22;9863;49.404;8.246;2022-12-18T06:38:44;-7.30;99.90
19449;DHT22;9863;49.404;8.246;2022-12-18T06:41:13;-7.30;99.90
19449;DHT22;9863;49.404;8.246;2022-12-18T06:43:42;-7.20;99.90
19449;DHT22;9863;49.404;8.246;2022-12-18T06:46:09;-7.30;99.90
19449;DHT22;9863;49.404;8.246;2022-12-18T06:48:37;-7.20;99.90
19449;DHT22;9863;49.404;8.246;2022-12-18T06:51:04;-7.20;99.90
19449;DHT22;9863;49.404;8.246;2022-12-18T06:53:32;-7.30;99.90
19449;DHT22;9863;49.404;8.246;2022-12-18T06:56:05;-7.30;99.90
19449;DHT22;9863;49.404;8.246;2022-12-18T06:58:36;-7.40;99.90
19449;DHT22;9863;49.404;8.246;2022-12-18T07:01:05;-7.50;99.90
19449;DHT22;9863;49.404;8.246;2022-12-18T07:03:36;-7.50;99.90
19449;DHT22;9863;49.404;8.246;2022-12-18T07:06:04;-7.50;99.90
19449;DHT22;9863;49.404;8.246;2022-12-18T07:08:37;-7.50;99.90
19449;DHT22;9863;49.404;8.246;2022-12-18T07:11:16;-7.60;99.90
19449;DHT22;9863;49.404;8.246;2022-12-18T07:13:45;-7.60;99.90
19449;DHT22;9863;49.404;8.246;2022-12-18T07:16:15;-7.60;99.90
19449;DHT22;9863;49.404;8.246;2022-12-18T07:18:51;-7.90;99.90
19449;DHT22;9863;49.404;8.246;2022-12-18T07:21:21;-7.80;99.90
19449;DHT22;9863;49.404;8.246;2022-12-18T07:23:49;-8.10;99.90
19449;DHT22;9863;49.404;8.246;2022-12-18T07:26:19;-8.00;99.90
19449;DHT22;9863;49.404;8.246;2022-12-18T07:28:48;-8.00;99.90
19449;DHT22;9863;49.404;8.246;2022-12-18T07:31:21;-7.20;99.90
19449;DHT22;9863;49.404;8.246;2022-12-18T07:33:49;-7.90;99.90
19449;DHT22;9863;49.404;8.246;2022-12-18T07:36:17;-7.50;99.90
19449;DHT22;9863;49.404;8.246;2022-12-18T07:38:47;-8.00;99.90
19449;DHT22;9863;49.404;8.246;2022-12-18T07:41:15;-8.10;99.90
19449;DHT22;9863;49.404;8.246;2022-12-18T07:43:42;-8.10;99.90
19449;DHT22;9863;49.404;8.246;2022-12-18T07:46:11;-8.00;99.90
19449;DHT22;9863;49.404;8.246;2022-12-18T07:48:41;-8.00;99.90
19449;DHT22;9863;49.404;8.246;2022-12-18T07:51:10;-7.30;99.90
19449;DHT22;9863;49.404;8.246;2022-12-18T07:53:41;-7.10;99.90
19449;DHT22;9863;49.404;8.246;2022-12-18T07:56:10;-7.90;99.90
19449;DHT22;9863;49.404;8.246;2022-12-18T07:58:57;-7.80;99.90
19449;DHT22;9863;49.404;8.246;2022-12-18T08:01:26;-7.90;99.90
19449;DHT22;9863;49.404;8.246;2022-12-18T08:03:54;-7.90;99.90
19449;DHT22;9863;49.404;8.246;2022-12-18T08:06:21;-7.80;99.90
19449;DHT22;9863;49.404;8.246;2022-12-18T08:08:54;-7.80;99.90
19449;DHT22;9863;49.404;8.246;2022-12-18T08:11:24;-7.80;99.90
19449;DHT22;9863;49.404;8.246;2022-12-18T08:13:52;-7.70;99.90
19449;DHT22;9863;49.404;8.246;2022-12-18T08:16:20;-7.60;99.90
19449;DHT22;9863;49.404;8.246;2022-12-18T08:18:48;-6.80;99.90
19449;DHT22;9863;49.404;8.246;2022-12-18T08:21:18;-7.60;99.90
19449;DHT22;9863;49.404;8.246;2022-12-18T08:23:51;-7.50;99.90
19449;DHT22;9863;49.404;8.246;2022-12-18T08:26:20;-7.40;99.90
19449;DHT22;9863;49.404;8.246;2022-12-18T08:28:48;-7.30;99.90
19449;DHT22;9863;49.404;8.246;2022-12-18T08:31:16;-7.30;99.90
19449;DHT22;9863;49.404;8.246;2022-12-18T08:33:44;-7.30;99.90
19449;DHT22;9863;49.404;8.246;2022-12-18T08:36:12;-7.30;99.90
19449;DHT22;9863;49.404;8.246;2022-12-18T08:38:39;-7.20;99.90
19449;DHT22;9863;49.404;8.246;2022-12-18T08:41:12;-7.20;99.90
19449;DHT22;9863;49.404;8.246;2022-12-18T08:43:43;-7.20;99.90
19449;DHT22;9863;49.404;8.246;2022-12-18T08:46:34;-7.10;99.90
19449;DHT22;9863;49.404;8.246;2022-12-18T08:49:03;-7.10;99.90
19449;DHT22;9863;49.404;8.246;2022-12-18T08:51:31;-6.70;99.90
19449;DHT22;9863;49.404;8.246;2022-12-18T08:53:58;-7.00;99.90
19449;DHT22;9863;49.404;8.246;2022-12-18T08:56:25;-6.90;99.90
19449;DHT22;9863;49.404;8.246;2022-12-18T08:58:53;-6.80;99.90
19449;DHT22;9863;49.404;8.246;2022-12-18T09:01:21;-6.80;99.90
19449;DHT22;9863;49.404;8.246;2022-12-18T09:03:50;-6.80;99.90
19449;DHT22;9863;49.404;8.246;2022-12-18T09:06:19;-6.70;99.90
19449;DHT22;9863;49.404;8.246;2022-12-18T09:08:47;-6.70;99.90
19449;DHT22;9863;49.404;8.246;2022-12-18T09:11:20;-6.70;99.90
19449;DHT22;9863;49.404;8.246;2022-12-18T09:13:49;-6.40;99.90
19449;DHT22;9863;49.404;8.246;2022-12-18T09:16:17;-6.60;99.90
19449;DHT22;9863;49.404;8.246;2022-12-18T09:18:44;-6.60;99.90
19449;DHT22;9863;49.404;8.246;2022-12-18T09:21:19;-6.50;99.90
19449;DHT22;9863;49.404;8.246;2022-12-18T09:23:52;-6.50;99.90
19449;DHT22;9863;49.404;8.246;2022-12-18T09:26:29;-6.50;99.90
19449;DHT22;9863;49.404;8.246;2022-12-18T09:28:58;-6.50;99.90
19449;DHT22;9863;49.404;8.246;2022-12-18T09:31:25;-6.40;99.90
19449;DHT22;9863;49.404;8.246;2022-12-18T09:33:55;-6.40;99.90
19449;DHT22;9863;49.404;8.246;2022-12-18T09:36:23;-6.40;99.90
19449;DHT22;9863;49.404;8.246;2022-12-18T09:38:50;-6.30;99.90
19449;DHT22;9863;49.404;8.246;2022-12-18T09:49:30;-6.10;99.90
19449;DHT22;9863;49.404;8.246;2022-12-18T09:54:40;-5.90;99.90
19449;DHT22;9863;49.404;8.246;2022-12-18T09:57:20;-5.90;99.90
19449;DHT22;9863;49.404;8.246;2022-12-18T09:59:54;-5.80;99.90
19449;DHT22;9863;49.404;8.246;2022-12-18T10:02:25;-5.80;99.90
19449;DHT22;9863;49.404;8.246;2022-12-18T10:05:09;-5.70;99.90
19449;DHT22;9863;49.404;8.246;2022-12-18T10:10:40;-4.90;99.90
19449;DHT22;9863;49.404;8.246;2022-12-18T10:28:14;-5.30;99.90
19449;DHT22;9863;49.404;8.246;2022-12-18T10:30:43;-5.20;99.90
19449;DHT22;9863;49.404;8.246;2022-12-18T10:33:21;-5.20;99.90
19449;DHT22;9863;49.404;8.246;2022-12-18T10:35:52;-5.20;99.90
19449;DHT22;9863;49.404;8.246;2022-12-18T10:38:31;-5.20;99.90
19449;DHT22;9863;49.404;8.246;2022-12-18T10:41:06;-5.10;99.90
19449;DHT22;9863;49.404;8.246;2022-12-18T10:44:20;-4.30;99.90
19449;DHT22;9863;49.404;8.246;2022-12-18T10:46:51;-5.00;99.90
19449;DHT22;9863;49.404;8.246;2022-12-18T10:49:29;-4.90;99.90
19449;DHT22;9863;49.404;8.246;2022-12-18T10:52:29;-4.90;99.90
19449;DHT22;9863;49.404;8.246;2022-12-18T10:54:59;-4.80;99.90
19449;DHT22;9863;49.404;8.246;2022-12-18T10:57:35;-4.80;99.90
19449;DHT22;9863;49.404;8.246;2022-12-18T11:02:47;-4.70;99.90
19449;DHT22;9863;49.404;8.246;2022-12-18T11:05:35;-4.70;99.90
19449;DHT22;9863;49.404;8.246;2022-12-18T11:08:03;-4.60;99.90
19449;DHT22;9863;49.404;8.246;2022-12-18T11:10:38;-4.70;99.90
19449;DHT22;9863;49.404;8.246;2022-12-18T11:13:22;-4.70;99.90
19449;DHT22;9863;49.404;8.246;2022-12-18T11:15:51;-4.60;99.90
19449;DHT22;9863;49.404;8.246;2022-12-18T11:18:28;-4.60;99.90
19449;DHT22;9863;49.404;8.246;2022-12-18T11:21:05;-4.50;99.90
19449;DHT22;9863;49.404;8.246;2022-12-18T11:23:34;-4.50;99.90
19449;DHT22;9863;49.404;8.246;2022-12-18T11:26:04;-4.50;99.90
19449;DHT22;9863;49.404;8.246;2022-12-18T11:28:38;-4.60;99.90
19449;DHT22;9863;49.404;8.246;2022-12-18T11:31:24;-4.60;99.90
19449;DHT22;9863;49.404;8.246;2022-12-18T11:36:55;-4.60;99.90
19449;DHT22;9863;49.404;8.246;2022-12-18T11:42:20;-4.50;99.90
19449;DHT22;9863;49.404;8.246;2022-12-18T11:45:24;-4.40;99.90
19449;DHT22;9863;49.404;8.246;2022-12-18T11:48:02;-4.50;99.90
19449;DHT22;9863;49.404;8.246;2022-12-18T11:50:46;-4.50;99.90
19449;DHT22;9863;49.404;8.246;2022-12-18T11:53:14;-4.50;99.90
19449;DHT22;9863;49.404;8.246;2022-12-18T11:58:47;-4.40;99.90
19449;DHT22;9863;49.404;8.246;2022-12-18T12:01:48;-4.40;99.90
19449;DHT22;9863;49.404;8.246;2022-12-18T12:22:36;-4.20;99.90
19449;DHT22;9863;49.404;8.246;2022-12-18T12:31:42;-4.20;99.90
19449;DHT22;9863;49.404;8.246;2022-12-18T12:40:25;-4.10;99.90
19449;DHT22;9863;49.404;8.246;2022-12-18T12:43:24;-4.00;99.90
19449;DHT22;9863;49.404;8.246;2022-12-18T12:46:07;-4.00;99.90
19449;DHT22;9863;49.404;8.246;2022-12-18T12:51:20;-4.10;99.90
19449;DHT22;9863;49.404;8.246;2022-12-18T12:53:52;-4.10;99.90
19449;DHT22;9863;49.404;8.246;2022-12-18T12:56:21;-4.00;99.90
19449;DHT22;9863;49.404;8.246;2022-12-18T12:59:13;-4.00;99.90
19449;DHT22;9863;49.404;8.246;2022-12-18T13:02:11;-4.00;99.90
19449;DHT22;9863;49.404;8.246;2022-12-18T13:04:49;-4.00;99.90
19449;DHT22;9863;49.404;8.246;2022-12-18T13:07:35;-4.00;99.90
19449;DHT22;9863;49.404;8.246;2022-12-18T13:16:04;-4.00;99.90
19449;DHT22;9863;49.404;8.246;2022-12-18T13:18:33;-4.10;99.90
19449;DHT22;9863;49.404;8.246;2022-12-18T13:21:02;-4.10;99.90
19449;DHT22;9863;49.404;8.246;2022-12-18T13:23:35;-4.10;99.90
19449;DHT22;9863;49.404;8.246;2022-12-18T13:34:24;-4.10;99.90
19449;DHT22;9863;49.404;8.246;2022-12-18T13:37:40;-4.10;99.90
19449;DHT22;9863;49.404;8.246;2022-12-18T13:48:56;-4.10;99.90
19449;DHT22;9863;49.404;8.246;2022-12-18T13:51:25;-4.10;99.90
19449;DHT22;9863;49.404;8.246;2022-12-18T13:54:02;-4.20;99.90
19449;DHT22;9863;49.404;8.246;2022-12-18T13:56:33;-4.10;99.90
19449;DHT22;9863;49.404;8.246;2022-12-18T13:59:25;-4.20;99.90
19449;DHT22;9863;49.404;8.246;2022-12-18T14:01:54;-4.20;99.90
19449;DHT22;9863;49.404;8.246;2022-12-18T14:07:26;-4.20;99.90
19449;DHT22;9863;49.404;8.246;2022-12-18T14:10:04;-4.20;99.90
19449;DHT22;9863;49.404;8.246;2022-12-18T14:13:06;-4.30;99.90
19449;DHT22;9863;49.404;8.246;2022-12-18T14:15:43;-4.30;99.90
19449;DHT22;9863;49.404;8.246;2022-12-18T14:18:21;-4.30;99.90
19449;DHT22;9863;49.404;8.246;2022-12-18T14:20:50;-4.30;99.90
19449;DHT22;9863;49.404;8.246;2022-12-18T14:23:36;-4.30;99.90
19449;DHT22;9863;49.404;8.246;2022-12-18T14:26:25;-4.30;99.90
19449;DHT22;9863;49.404;8.246;2022-12-18T14:28:57;-4.30;99.90
19449;DHT22;9863;49.404;8.246;2022-12-18T14:31:27;-4.30;99.90
19449;DHT22;9863;49.404;8.246;2022-12-18T14:33:55;-4.40;99.90
19449;DHT22;9863;49.404;8.246;2022-12-18T14:36:25;-4.40;99.90
19449;DHT22;9863;49.404;8.246;2022-12-18T14:38:58;-4.40;99.90
19449;DHT22;9863;49.404;8.246;2022-12-18T14:41:26;-4.40;99.90
19449;DHT22;9863;49.404;8.246;2022-12-18T14:43:54;-4.40;99.90
19449;DHT22;9863;49.404;8.246;2022-12-18T14:46:32;-4.40;99.90
19449;DHT22;9863;49.404;8.246;2022-12-18T14:49:17;-4.40;99.90
19449;DHT22;9863;49.404;8.246;2022-12-18T14:51:53;-4.40;99.90
19449;DHT22;9863;49.404;8.246;2022-12-18T14:54:28;-4.40;99.90
19449;DHT22;9863;49.404;8.246;2022-12-18T14:57:05;-4.40;99.90
19449;DHT22;9863;49.404;8.246;2022-12-18T14:59:41;-4.40;99.90
19449;DHT22;9863;49.404;8.246;2022-12-18T15:05:04;-4.50;99.90
19449;DHT22;9863;49.404;8.246;2022-12-18T15:07:45;-4.50;99.90
19449;DHT22;9863;49.404;8.246;2022-12-18T15:10:14;-4.50;99.90
19449;DHT22;9863;49.404;8.246;2022-12-18T15:20:59;-4.50;99.90
19449;DHT22;9863;49.404;8.246;2022-12-18T15:23:46;-4.40;99.90
19449;DHT22;9863;49.404;8.246;2022-12-18T15:26:17;-4.60;99.90
19449;DHT22;9863;49.404;8.246;2022-12-18T15:28:52;-4.50;99.90
19449;DHT22;9863;49.404;8.246;2022-12-18T15:36:23;-4.40;99.90
19449;DHT22;9863;49.404;8.246;2022-12-18T15:38:54;-4.30;99.90
19449;DHT22;9863;49.404;8.246;2022-12-18T15:41:33;-4.30;99.90
19449;DHT22;9863;49.404;8.246;2022-12-18T15:44:03;-4.30;99.90
19449;DHT22;9863;49.404;8.246;2022-12-18T15:46:50;-4.20;99.90
19449;DHT22;9863;49.404;8.246;2022-12-18T15:49:17;-4.20;99.90
19449;DHT22;9863;49.404;8.246;2022-12-18T15:51:46;-4.20;99.90
19449;DHT22;9863;49.404;8.246;2022-12-18T15:54:18;-4.20;99.90
19449;DHT22;9863;49.404;8.246;2022-12-18T15:57:10;-4.10;99.90
19449;DHT22;9863;49.404;8.246;2022-12-18T15:59:51;-4.20;99.90
19449;DHT22;9863;49.404;8.246;2022-12-18T16:02:21;-4.20;99.90
19449;DHT22;9863;49.404;8.246;2022-12-18T16:04:56;-4.20;99.90
19449;DHT22;9863;49.404;8.246;2022-12-18T16:07:23;-4.10;99.90
19449;DHT22;9863;49.404;8.246;2022-12-18T16:09:55;-4.10;99.90
19449;DHT22;9863;49.404;8.246;2022-12-18T16:12:25;-4.10;99.90
19449;DHT22;9863;49.404;8.246;2022-12-18T16:14:52;-4.10;99.90
19449;DHT22;9863;49.404;8.246;2022-12-18T16:17:19;-4.10;99.90
19449;DHT22;9863;49.404;8.246;2022-12-18T16:19:46;-4.00;99.90
19449;DHT22;9863;49.404;8.246;2022-12-18T16:22:21;-4.00;99.90
19449;DHT22;9863;49.404;8.246;2022-12-18T16:24:51;-4.00;99.90
19449;DHT22;9863;49.404;8.246;2022-12-18T16:27:19;-4.00;99.90
19449;DHT22;9863;49.404;8.246;2022-12-18T16:29:48;-4.00;99.90
19449;DHT22;9863;49.404;8.246;2022-12-18T16:32:20;-4.00;99.90
19449;DHT22;9863;49.404;8.246;2022-12-18T16:34:48;-4.00;99.90
19449;DHT22;9863;49.404;8.246;2022-12-18T16:37:16;-4.10;99.90
19449;DHT22;9863;49.404;8.246;2022-12-18T16:39:43;-4.00;99.90
19449;DHT22;9863;49.404;8.246;2022-12-18T16:42:15;-4.00;99.90
19449;DHT22;9863;49.404;8.246;2022-12-18T16:44:48;-3.90;99.90
19449;DHT22;9863;49.404;8.246;2022-12-18T16:47:17;-3.90;99.90
19449;DHT22;9863;49.404;8.246;2022-12-18T16:49:44;-3.80;99.90
19449;DHT22;9863;49.404;8.246;2022-12-18T16:52:12;-3.50;99.90
19449;DHT22;9863;49.404;8.246;2022-12-18T16:54:40;-3.70;99.90
19449;DHT22;9863;49.404;8.246;2022-12-18T16:57:10;-3.70;99.90
19449;DHT22;9863;49.404;8.246;2022-12-18T16:59:39;-3.70;99.90
19449;DHT22;9863;49.404;8.246;2022-12-18T17:02:22;-3.70;99.90
19449;DHT22;9863;49.404;8.246;2022-12-18T17:04:56;-3.60;99.90
19449;DHT22;9863;49.404;8.246;2022-12-18T17:07:25;-3.60;99.90
19449;DHT22;9863;49.404;8.246;2022-12-18T17:09:53;-3.60;99.90
19449;DHT22;9863;49.404;8.246;2022-12-18T17:12:21;-3.60;99.90
19449;DHT22;9863;49.404;8.246;2022-12-18T17:14:48;-2.70;99.90
19449;DHT22;9863;49.404;8.246;2022-12-18T17:17:16;-2.50;99.90
19449;DHT22;9863;49.404;8.246;2022-12-18T17:19:48;-3.60;99.90
19449;DHT22;9863;49.404;8.246;2022-12-18T17:22:15;-3.60;99.90
19449;DHT22;9863;49.404;8.246;2022-12-18T17:24:42;-3.60;99.90
19449;DHT22;9863;49.404;8.246;2022-12-18T17:27:09;-2.90;99.90
19449;DHT22;9863;49.404;8.246;2022-12-18T17:29:37;-2.50;99.90
19449;DHT22;9863;49.404;8.246;2022-12-18T17:32:13;-3.40;99.90
19449;DHT22;9863;49.404;8.246;2022-12-18T17:34:41;-3.50;99.90
19449;DHT22;9863;49.404;8.246;2022-12-18T17:37:08;-3.50;99.90
19449;DHT22;9863;49.404;8.246;2022-12-18T17:39:36;-3.40;99.90
19449;DHT22;9863;49.404;8.246;2022-12-18T17:42:03;-3.40;99.90
19449;DHT22;9863;49.404;8.246;2022-12-18T17:44:33;-2.60;99.90
19449;DHT22;9863;49.404;8.246;2022-12-18T17:47:01;-3.40;99.90
19449;DHT22;9863;49.404;8.246;2022-12-18T17:49:28;-3.40;99.90
19449;DHT22;9863;49.404;8.246;2022-12-18T17:51:57;-3.40;99.90
19449;DHT22;9863;49.404;8.246;2022-12-18T17:54:24;-3.40;99.90
19449;DHT22;9863;49.404;8.246;2022-12-18T17:56:51;-3.40;99.90
19449;DHT22;9863;49.404;8.246;2022-12-18T17:59:19;-3.50;99.90
19449;DHT22;9863;49.404;8.246;2022-12-18T18:01:48;-3.80;99.90
19449;DHT22;9863;49.404;8.246;2022-12-18T18:04:16;-3.50;99.90
19449;DHT22;9863;49.404;8.246;2022-12-18T18:06:44;-3.40;99.90
19449;DHT22;9863;49.404;8.246;2022-12-18T18:09:11;-3.50;99.90
19449;DHT22;9863;49.404;8.246;2022-12-18T18:11:43;-3.50;99.90
19449;DHT22;9863;49.404;8.246;2022-12-18T18:14:31;-3.50;99.90
19449;DHT22;9863;49.404;8.246;2022-12-18T18:16:59;-3.50;99.90
19449;DHT22;9863;49.404;8.246;2022-12-18T18:19:31;-3.50;99.90
19449;DHT22;9863;49.404;8.246;2022-12-18T18:21:59;-3.50;99.90
19449;DHT22;9863;49.404;8.246;2022-12-18T18:24:28;-2.90;99.90
19449;DHT22;9863;49.404;8.246;2022-12-18T18:26:55;-3.50;99.90
19449;DHT22;9863;49.404;8.246;2022-12-18T18:29:28;-3.40;99.90
19449;DHT22;9863;49.404;8.246;2022-12-18T18:31:58;-3.00;99.90
19449;DHT22;9863;49.404;8.246;2022-12-18T18:34:28;-3.40;99.90
19449;DHT22;9863;49.404;8.246;2022-12-18T18:36:56;-3.30;99.90
19449;DHT22;9863;49.404;8.246;2022-12-18T18:39:24;-3.30;99.90
19449;DHT22;9863;49.404;8.246;2022-12-18T18:41:52;-3.00;99.90
19449;DHT22;9863;49.404;8.246;2022-12-18T18:44:20;-3.30;99.90